sensor_id;sensor_type;location;lat;lon;timestamp;pressure;altitude;pressure_sealevel;temperature;humidity
25510;BME280;13413;52.336;21.200;2023-12-20T00:01:44;99637.20;;;7.83;89.48
25510;BME280;13413;52.336;21.200;2023-12-20T00:04:29;99632.88;;;7.85;89.43
25510;BME280;13413;52.336;21.200;2023-12-20T00:07:15;99631.00;;;7.86;89.44
25510;BME280;13413;52.336;21.200;2023-12-20T00:10:01;99626.60;;;7.86;89.58
25510;BME280;13413;52.336;21.200;2023-12-20T00:12:47;99628.17;;;7.83;89.78
25510;BME280;13413;52.336;21.200;2023-12-20T00:15:33;99627.90;;;7.84;89.68
25510;BME280;13413;52.336;21.200;2023-12-20T00:18:18;99625.05;;;7.83;89.81
25510;BME280;13413;52.336;21.200;2023-12-20T00:21:07;99625.63;;;7.84;89.69
25510;BME280;13413;52.336;21.200;2023-12-20T00:23:53;99619.48;;;7.87;89.53
25510;BME280;13413;52.336;21.200;2023-12-20T00:26:38;99618.20;;;7.84;89.53
25510;BME280;13413;52.336;21.200;2023-12-20T00:29:24;99618.11;;;7.84;89.73
25510;BME280;13413;52.336;21.200;2023-12-20T00:32:09;99620.13;;;7.86;89.63
25510;BME280;13413;52.336;21.200;2023-12-20T00:34:54;99621.59;;;7.85;89.52
25510;BME280;13413;52.336;21.200;2023-12-20T00:37:40;99616.05;;;7.84;89.60
25510;BME280;13413;52.336;21.200;2023-12-20T00:40:26;99606.19;;;7.85;89.61
25510;BME280;13413;52.336;21.200;2023-12-20T00:43:11;99602.71;;;7.87;89.54
25510;BME280;13413;52.336;21.200;2023-12-20T00:45:57;99601.73;;;7.87;89.48
25510;BME280;13413;52.336;21.200;2023-12-20T00:48:42;99603.79;;;7.87;89.58
25510;BME280;13413;52.336;21.200;2023-12-20T00:51:28;99598.55;;;7.85;89.58
25510;BME280;13413;52.336;21.200;2023-12-20T00:54:14;99596.51;;;7.86;89.66
25510;BME280;13413;52.336;21.200;2023-12-20T00:56:59;99593.50;;;7.88;89.53
25510;BME280;13413;52.336;21.200;2023-12-20T00:59:45;99589.59;;;7.88;89.49
25510;BME280;13413;52.336;21.200;2023-12-20T01:02:30;99593.16;;;7.88;89.47
25510;BME280;13413;52.336;21.200;2023-12-20T01:05:16;99588.94;;;7.85;89.71
25510;BME280;13413;52.336;21.200;2023-12-20T01:08:02;99585.09;;;7.89;89.55
25510;BME280;13413;52.336;21.200;2023-12-20T01:10:47;99585.30;;;7.89;89.46
25510;BME280;13413;52.336;21.200;2023-12-20T01:13:33;99583.15;;;7.89;89.47
25510;BME280;13413;52.336;21.200;2023-12-20T01:16:18;99580.47;;;7.88;89.55
25510;BME280;13413;52.336;21.200;2023-12-20T01:26:22;99571.64;;;7.87;89.87
25510;BME280;13413;52.336;21.200;2023-12-20T01:29:07;99577.73;;;7.86;89.91
25510;BME280;13413;52.336;21.200;2023-12-20T01:31:53;99576.11;;;7.88;89.75
25510;BME280;13413;52.336;21.200;2023-12-20T01:34:39;99567.98;;;7.88;89.68
25510;BME280;13413;52.336;21.200;2023-12-20T01:37:24;99569.16;;;7.88;89.78
25510;BME280;13413;52.336;21.200;2023-12-20T01:40:10;99569.35;;;7.90;89.68
25510;BME280;13413;52.336;21.200;2023-12-20T01:42:59;99560.30;;;7.90;89.79
25510;BME280;13413;52.336;21.200;2023-12-20T01:45:44;99555.98;;;7.91;89.63
25510;BME280;13413;52.336;21.200;2023-12-20T01:48:30;99561.09;;;7.91;89.75
25510;BME280;13413;52.336;21.200;2023-12-20T01:51:16;99561.72;;;7.90;89.68
25510;BME280;13413;52.336;21.200;2023-12-20T01:54:02;99564.23;;;7.93;89.63
25510;BME280;13413;52.336;21.200;2023-12-20T01:56:47;99562.67;;;7.94;89.71
25510;BME280;13413;52.336;21.200;2023-12-20T01:59:33;99554.88;;;7.96;89.46
25510;BME280;13413;52.336;21.200;2023-12-20T02:02:20;99556.31;;;7.97;89.57
25510;BME280;13413;52.336;21.200;2023-12-20T02:05:06;99552.33;;;7.97;89.61
25510;BME280;13413;52.336;21.200;2023-12-20T02:07:52;99552.45;;;7.95;89.62
25510;BME280;13413;52.336;21.200;2023-12-20T02:10:38;99554.46;;;7.94;89.67
25510;BME280;13413;52.336;21.200;2023-12-20T02:13:24;99554.95;;;7.94;89.80
25510;BME280;13413;52.336;21.200;2023-12-20T02:16:09;99548.22;;;7.95;89.55
25510;BME280;13413;52.336;21.200;2023-12-20T02:18:55;99542.08;;;7.94;89.62
25510;BME280;13413;52.336;21.200;2023-12-20T02:21:40;99539.91;;;7.95;89.64
25510;BME280;13413;52.336;21.200;2023-12-20T02:24:29;99541.00;;;7.91;89.58
25510;BME280;13413;52.336;21.200;2023-12-20T02:27:15;99538.73;;;7.93;89.65
25510;BME280;13413;52.336;21.200;2023-12-20T02:30:03;99540.04;;;7.91;89.64
25510;BME280;13413;52.336;21.200;2023-12-20T02:32:48;99535.05;;;7.93;89.58
25510;BME280;13413;52.336;21.200;2023-12-20T02:35:35;99532.73;;;7.94;89.46
25510;BME280;13413;52.336;21.200;2023-12-20T02:38:20;99529.94;;;7.94;89.55
25510;BME280;13413;52.336;21.200;2023-12-20T02:41:06;99525.23;;;7.94;89.48
25510;BME280;13413;52.336;21.200;2023-12-20T02:43:51;99512.91;;;7.94;89.56
25510;BME280;13413;52.336;21.200;2023-12-20T02:46:37;99513.75;;;7.93;89.65
25510;BME280;13413;52.336;21.200;2023-12-20T02:49:23;99509.38;;;7.94;89.56
25510;BME280;13413;52.336;21.200;2023-12-20T02:52:08;99495.91;;;7.93;89.47
25510;BME280;13413;52.336;21.200;2023-12-20T02:54:53;99503.68;;;7.93;89.59
25510;BME280;13413;52.336;21.200;2023-12-20T02:57:39;99506.87;;;7.91;89.60
25510;BME280;13413;52.336;21.200;2023-12-20T03:00:24;99500.53;;;7.91;89.64
25510;BME280;13413;52.336;21.200;2023-12-20T03:03:09;99495.08;;;7.93;89.57
25510;BME280;13413;52.336;21.200;2023-12-20T03:05:55;99496.13;;;7.93;89.57
25510;BME280;13413;52.336;21.200;2023-12-20T03:08:41;99491.21;;;7.93;89.43
25510;BME280;13413;52.336;21.200;2023-12-20T03:11:27;99494.48;;;7.95;89.52
25510;BME280;13413;52.336;21.200;2023-12-20T03:14:13;99489.54;;;7.95;89.50
25510;BME280;13413;52.336;21.200;2023-12-20T03:16:58;99486.31;;;7.94;89.53
25510;BME280;13413;52.336;21.200;2023-12-20T03:19:44;99488.64;;;7.92;89.51
25510;BME280;13413;52.336;21.200;2023-12-20T03:22:29;99491.61;;;7.92;89.45
25510;BME280;13413;52.336;21.200;2023-12-20T03:25:15;99489.98;;;7.93;89.51
25510;BME280;13413;52.336;21.200;2023-12-20T03:28:00;99481.30;;;7.93;89.40
25510;BME280;13413;52.336;21.200;2023-12-20T03:30:46;99490.23;;;7.92;89.47
25510;BME280;13413;52.336;21.200;2023-12-20T03:33:31;99507.09;;;7.92;89.50
25510;BME280;13413;52.336;21.200;2023-12-20T03:36:17;99501.23;;;7.93;89.42
25510;BME280;13413;52.336;21.200;2023-12-20T03:39:02;99496.45;;;7.93;89.48
25510;BME280;13413;52.336;21.200;2023-12-20T03:49:56;99475.56;;;7.95;89.44
25510;BME280;13413;52.336;21.200;2023-12-20T03:52:41;99480.57;;;7.93;89.45
25510;BME280;13413;52.336;21.200;2023-12-20T03:55:27;99482.88;;;7.90;89.64
25510;BME280;13413;52.336;21.200;2023-12-20T03:58:13;99484.29;;;7.90;89.64
25510;BME280;13413;52.336;21.200;2023-12-20T04:00:58;99485.42;;;7.89;89.59
25510;BME280;13413;52.336;21.200;2023-12-20T04:03:47;99486.48;;;7.89;89.66
25510;BME280;13413;52.336;21.200;2023-12-20T04:06:32;99480.95;;;7.88;89.65
25510;BME280;13413;52.336;21.200;2023-12-20T04:09:18;99476.17;;;7.90;89.53
25510;BME280;13413;52.336;21.200;2023-12-20T04:12:03;99469.02;;;7.91;89.62
25510;BME280;13413;52.336;21.200;2023-12-20T04:14:49;99474.22;;;7.92;89.52
25510;BME280;13413;52.336;21.200;2023-12-20T04:17:35;99483.83;;;7.93;89.68
25510;BME280;13413;52.336;21.200;2023-12-20T04:20:20;99476.06;;;7.93;89.58
25510;BME280;13413;52.336;21.200;2023-12-20T04:23:05;99475.09;;;7.93;89.65
25510;BME280;13413;52.336;21.200;2023-12-20T04:25:51;99470.64;;;7.94;89.56
25510;BME280;13413;52.336;21.200;2023-12-20T04:28:37;99478.21;;;7.95;89.70
25510;BME280;13413;52.336;21.200;2023-12-20T04:31:22;99478.55;;;7.96;89.56
25510;BME280;13413;52.336;21.200;2023-12-20T04:34:08;99471.98;;;7.95;89.72
25510;BME280;13413;52.336;21.200;2023-12-20T04:36:53;99473.48;;;7.94;89.56
25510;BME280;13413;52.336;21.200;2023-12-20T04:39:39;99473.89;;;7.95;89.69
25510;BME280;13413;52.336;21.200;2023-12-20T04:42:25;99476.27;;;7.94;89.60
25510;BME280;13413;52.336;21.200;2023-12-20T04:45:10;99471.82;;;7.91;89.64
25510;BME280;13413;52.336;21.200;2023-12-20T04:47:56;99477.80;;;7.90;89.74
25510;BME280;13413;52.336;21.200;2023-12-20T04:50:41;99483.35;;;7.89;89.63
25510;BME280;13413;52.336;21.200;2023-12-20T04:53:27;99485.84;;;7.86;89.74
25510;BME280;13413;52.336;21.200;2023-12-20T04:56:13;99485.80;;;7.86;89.63
25510;BME280;13413;52.336;21.200;2023-12-20T04:58:58;99484.90;;;7.89;89.77
25510;BME280;13413;52.336;21.200;2023-12-20T05:01:44;99477.45;;;7.88;89.83
25510;BME280;13413;52.336;21.200;2023-12-20T05:04:29;99478.75;;;7.86;89.83
25510;BME280;13413;52.336;21.200;2023-12-20T05:07:15;99477.67;;;7.86;89.70
25510;BME280;13413;52.336;21.200;2023-12-20T05:10:00;99475.39;;;7.86;89.83
25510;BME280;13413;52.336;21.200;2023-12-20T05:12:46;99468.48;;;7.88;89.71
25510;BME280;13413;52.336;21.200;2023-12-20T05:15:31;99463.48;;;7.88;89.69
25510;BME280;13413;52.336;21.200;2023-12-20T05:18:17;99461.50;;;7.86;89.62
25510;BME280;13413;52.336;21.200;2023-12-20T05:21:03;99461.48;;;7.85;89.71
25510;BME280;13413;52.336;21.200;2023-12-20T05:23:48;99453.63;;;7.84;89.72
25510;BME280;13413;52.336;21.200;2023-12-20T05:26:33;99448.44;;;7.84;89.78
25510;BME280;13413;52.336;21.200;2023-12-20T05:29:19;99450.59;;;7.82;89.75
25510;BME280;13413;52.336;21.200;2023-12-20T05:32:05;99450.02;;;7.82;89.68
25510;BME280;13413;52.336;21.200;2023-12-20T05:34:51;99449.89;;;7.82;89.58
25510;BME280;13413;52.336;21.200;2023-12-20T05:37:36;99448.34;;;7.81;89.62
25510;BME280;13413;52.336;21.200;2023-12-20T05:40:22;99453.14;;;7.81;89.54
25510;BME280;13413;52.336;21.200;2023-12-20T05:43:07;99450.06;;;7.79;89.68
25510;BME280;13413;52.336;21.200;2023-12-20T05:45:53;99444.13;;;7.77;89.62
25510;BME280;13413;52.336;21.200;2023-12-20T05:48:38;99448.20;;;7.77;89.67
25510;BME280;13413;52.336;21.200;2023-12-20T05:51:24;99448.35;;;7.76;89.67
25510;BME280;13413;52.336;21.200;2023-12-20T05:54:10;99446.61;;;7.74;89.70
25510;BME280;13413;52.336;21.200;2023-12-20T05:56:55;99442.61;;;7.75;89.66
25510;BME280;13413;52.336;21.200;2023-12-20T05:59:41;99447.00;;;7.75;89.66
25510;BME280;13413;52.336;21.200;2023-12-20T06:02:26;99443.88;;;7.76;89.61
25510;BME280;13413;52.336;21.200;2023-12-20T06:13:20;99450.54;;;7.76;89.67
25510;BME280;13413;52.336;21.200;2023-12-20T06:18:53;99453.08;;;7.76;89.66
25510;BME280;13413;52.336;21.200;2023-12-20T06:21:38;99455.58;;;7.76;89.62
25510;BME280;13413;52.336;21.200;2023-12-20T06:24:24;99452.76;;;7.73;89.81
25510;BME280;13413;52.336;21.200;2023-12-20T06:29:56;99451.52;;;7.71;89.75
25510;BME280;13413;52.336;21.200;2023-12-20T06:32:42;99454.36;;;7.72;89.82
25510;BME280;13413;52.336;21.200;2023-12-20T06:35:27;99456.98;;;7.73;89.66
25510;BME280;13413;52.336;21.200;2023-12-20T06:38:13;99457.54;;;7.72;89.67
25510;BME280;13413;52.336;21.200;2023-12-20T06:40:59;99455.58;;;7.71;89.75
25510;BME280;13413;52.336;21.200;2023-12-20T06:43:44;99455.29;;;7.73;89.74
25510;BME280;13413;52.336;21.200;2023-12-20T06:46:29;99455.64;;;7.73;89.64
25510;BME280;13413;52.336;21.200;2023-12-20T06:49:15;99458.28;;;7.73;89.67
25510;BME280;13413;52.336;21.200;2023-12-20T06:52:00;99459.11;;;7.74;89.65
25510;BME280;13413;52.336;21.200;2023-12-20T06:54:46;99461.10;;;7.72;89.60
25510;BME280;13413;52.336;21.200;2023-12-20T06:57:31;99465.06;;;7.70;89.63
25510;BME280;13413;52.336;21.200;2023-12-20T07:00:18;99464.45;;;7.70;89.56
25510;BME280;13413;52.336;21.200;2023-12-20T07:03:04;99467.79;;;7.71;89.62
25510;BME280;13413;52.336;21.200;2023-12-20T07:05:49;99461.33;;;7.70;89.60
25510;BME280;13413;52.336;21.200;2023-12-20T07:08:35;99462.67;;;7.71;89.62
25510;BME280;13413;52.336;21.200;2023-12-20T07:11:20;99458.80;;;7.72;89.67
25510;BME280;13413;52.336;21.200;2023-12-20T07:14:06;99455.18;;;7.74;89.58
25510;BME280;13413;52.336;21.200;2023-12-20T07:16:51;99454.48;;;7.74;89.74
25510;BME280;13413;52.336;21.200;2023-12-20T07:19:37;99458.64;;;7.75;89.64
25510;BME280;13413;52.336;21.200;2023-12-20T07:22:23;99460.92;;;7.74;89.74
25510;BME280;13413;52.336;21.200;2023-12-20T07:25:08;99461.52;;;7.73;89.87
25510;BME280;13413;52.336;21.200;2023-12-20T07:27:54;99461.19;;;7.72;89.79
25510;BME280;13413;52.336;21.200;2023-12-20T07:30:40;99465.26;;;7.73;89.69
25510;BME280;13413;52.336;21.200;2023-12-20T07:33:25;99464.97;;;7.72;89.75
25510;BME280;13413;52.336;21.200;2023-12-20T07:36:11;99464.61;;;7.74;89.81
25510;BME280;13413;52.336;21.200;2023-12-20T07:38:56;99461.45;;;7.74;89.79
25510;BME280;13413;52.336;21.200;2023-12-20T07:41:42;99460.43;;;7.75;89.80
25510;BME280;13413;52.336;21.200;2023-12-20T07:44:27;99465.70;;;7.75;89.82
25510;BME280;13413;52.336;21.200;2023-12-20T07:47:13;99466.06;;;7.76;89.77
25510;BME280;13413;52.336;21.200;2023-12-20T07:49:59;99468.71;;;7.74;89.93
25510;BME280;13413;52.336;21.200;2023-12-20T07:52:44;99469.05;;;7.76;89.79
25510;BME280;13413;52.336;21.200;2023-12-20T07:55:30;99464.61;;;7.78;89.81
25510;BME280;13413;52.336;21.200;2023-12-20T07:58:15;99457.75;;;7.78;89.83
25510;BME280;13413;52.336;21.200;2023-12-20T08:01:01;99457.09;;;7.77;89.82
25510;BME280;13413;52.336;21.200;2023-12-20T08:03:46;99454.55;;;7.75;89.97
25510;BME280;13413;52.336;21.200;2023-12-20T08:06:33;99452.72;;;7.76;90.08
25510;BME280;13413;52.336;21.200;2023-12-20T08:09:18;99447.59;;;7.78;89.89
25510;BME280;13413;52.336;21.200;2023-12-20T08:12:04;99449.49;;;7.79;90.01
25510;BME280;13413;52.336;21.200;2023-12-20T08:14:49;99457.32;;;7.81;90.05
25510;BME280;13413;52.336;21.200;2023-12-20T08:17:35;99453.64;;;7.80;89.93
25510;BME280;13413;52.336;21.200;2023-12-20T08:20:20;99451.91;;;7.81;89.99
25510;BME280;13413;52.336;21.200;2023-12-20T08:23:06;99451.91;;;7.83;90.02
25510;BME280;13413;52.336;21.200;2023-12-20T08:25:52;99452.73;;;7.81;90.04
25510;BME280;13413;52.336;21.200;2023-12-20T08:36:45;99439.48;;;7.83;90.24
25510;BME280;13413;52.336;21.200;2023-12-20T08:39:31;99442.77;;;7.83;90.12
25510;BME280;13413;52.336;21.200;2023-12-20T08:42:18;99439.33;;;7.83;90.14
25510;BME280;13413;52.336;21.200;2023-12-20T08:45:04;99445.76;;;7.85;90.02
25510;BME280;13413;52.336;21.200;2023-12-20T08:47:50;99447.67;;;7.87;90.09
25510;BME280;13413;52.336;21.200;2023-12-20T08:50:35;99446.66;;;7.88;90.13
25510;BME280;13413;52.336;21.200;2023-12-20T08:53:21;99445.86;;;7.89;90.15
25510;BME280;13413;52.336;21.200;2023-12-20T08:56:06;99448.90;;;7.89;90.21
25510;BME280;13413;52.336;21.200;2023-12-20T08:58:52;99447.25;;;7.86;90.07
25510;BME280;13413;52.336;21.200;2023-12-20T09:01:37;99444.23;;;7.88;89.95
25510;BME280;13413;52.336;21.200;2023-12-20T09:04:23;99439.45;;;7.85;90.14
25510;BME280;13413;52.336;21.200;2023-12-20T09:07:13;99437.87;;;7.87;89.94
25510;BME280;13413;52.336;21.200;2023-12-20T09:10:06;99433.25;;;7.87;90.03
25510;BME280;13413;52.336;21.200;2023-12-20T09:12:51;99428.29;;;7.90;90.08
25510;BME280;13413;52.336;21.200;2023-12-20T09:15:37;99429.64;;;7.93;90.04
25510;BME280;13413;52.336;21.200;2023-12-20T09:18:23;99425.27;;;7.92;90.11
25510;BME280;13413;52.336;21.200;2023-12-20T09:21:08;99421.20;;;7.91;89.91
25510;BME280;13413;52.336;21.200;2023-12-20T09:23:54;99414.89;;;7.90;90.04
25510;BME280;13413;52.336;21.200;2023-12-20T09:26:40;99415.53;;;7.89;90.08
25510;BME280;13413;52.336;21.200;2023-12-20T09:29:26;99417.15;;;7.89;90.12
25510;BME280;13413;52.336;21.200;2023-12-20T09:32:11;99414.05;;;7.87;90.04
25510;BME280;13413;52.336;21.200;2023-12-20T09:34:57;99407.80;;;7.88;90.17
25510;BME280;13413;52.336;21.200;2023-12-20T09:37:42;99401.83;;;7.89;90.09
25510;BME280;13413;52.336;21.200;2023-12-20T09:40:28;99399.34;;;7.88;90.20
25510;BME280;13413;52.336;21.200;2023-12-20T09:43:15;99394.70;;;7.87;90.22
25510;BME280;13413;52.336;21.200;2023-12-20T09:46:01;99395.59;;;7.87;90.26
25510;BME280;13413;52.336;21.200;2023-12-20T09:48:47;99395.05;;;7.89;90.20
25510;BME280;13413;52.336;21.200;2023-12-20T09:51:33;99391.98;;;7.88;90.25
25510;BME280;13413;52.336;21.200;2023-12-20T09:54:19;99391.08;;;7.89;90.30
25510;BME280;13413;52.336;21.200;2023-12-20T09:57:06;99386.99;;;7.91;90.24
25510;BME280;13413;52.336;21.200;2023-12-20T09:59:51;99386.33;;;7.92;90.32
25510;BME280;13413;52.336;21.200;2023-12-20T10:02:37;99385.54;;;7.92;90.33
25510;BME280;13413;52.336;21.200;2023-12-20T10:05:26;99382.23;;;7.93;90.22
25510;BME280;13413;52.336;21.200;2023-12-20T10:08:11;99382.41;;;7.95;90.40
25510;BME280;13413;52.336;21.200;2023-12-20T10:10:56;99384.48;;;7.95;90.11
25510;BME280;13413;52.336;21.200;2023-12-20T10:13:42;99375.77;;;7.96;90.20
25510;BME280;13413;52.336;21.200;2023-12-20T10:16:28;99381.52;;;7.94;90.18
25510;BME280;13413;52.336;21.200;2023-12-20T10:19:15;99382.36;;;7.93;90.26
25510;BME280;13413;52.336;21.200;2023-12-20T10:22:03;99375.48;;;7.93;90.28
25510;BME280;13413;52.336;21.200;2023-12-20T10:24:49;99373.76;;;7.95;90.27
25510;BME280;13413;52.336;21.200;2023-12-20T10:27:35;99374.45;;;7.95;90.22
25510;BME280;13413;52.336;21.200;2023-12-20T10:30:20;99375.84;;;7.95;90.14
25510;BME280;13413;52.336;21.200;2023-12-20T10:33:06;99373.86;;;7.92;90.06
25510;BME280;13413;52.336;21.200;2023-12-20T10:35:52;99370.38;;;7.90;90.19
25510;BME280;13413;52.336;21.200;2023-12-20T10:38:38;99363.05;;;7.90;90.01
25510;BME280;13413;52.336;21.200;2023-12-20T10:41:27;99357.19;;;7.87;90.23
25510;BME280;13413;52.336;21.200;2023-12-20T10:44:13;99353.31;;;7.90;90.21
25510;BME280;13413;52.336;21.200;2023-12-20T10:46:59;99360.59;;;7.91;90.20
25510;BME280;13413;52.336;21.200;2023-12-20T10:49:44;99359.23;;;7.94;90.23
25510;BME280;13413;52.336;21.200;2023-12-20T10:56:59;99366.33;;;7.95;90.21
25510;BME280;13413;52.336;21.200;2023-12-20T10:59:45;99365.16;;;7.93;90.07
25510;BME280;13413;52.336;21.200;2023-12-20T11:02:30;99357.61;;;7.93;90.31
25510;BME280;13413;52.336;21.200;2023-12-20T11:05:22;99356.42;;;7.92;90.07
25510;BME280;13413;52.336;21.200;2023-12-20T11:08:11;99346.25;;;7.90;90.08
25510;BME280;13413;52.336;21.200;2023-12-20T11:10:59;99344.36;;;7.92;90.17
25510;BME280;13413;52.336;21.200;2023-12-20T11:13:53;99342.59;;;7.90;90.02
25510;BME280;13413;52.336;21.200;2023-12-20T11:16:40;99337.83;;;7.90;90.01
25510;BME280;13413;52.336;21.200;2023-12-20T11:19:26;99333.90;;;7.91;90.02
25510;BME280;13413;52.336;21.200;2023-12-20T11:22:11;99331.55;;;7.91;90.09
25510;BME280;13413;52.336;21.200;2023-12-20T11:24:59;99324.05;;;7.89;89.81
25510;BME280;13413;52.336;21.200;2023-12-20T11:30:51;99306.28;;;7.90;90.02
25510;BME280;13413;52.336;21.200;2023-12-20T11:33:37;99307.82;;;7.93;90.03
25510;BME280;13413;52.336;21.200;2023-12-20T11:36:23;99307.36;;;7.92;89.93
25510;BME280;13413;52.336;21.200;2023-12-20T11:39:10;99307.93;;;7.92;90.02
25510;BME280;13413;52.336;21.200;2023-12-20T11:41:56;99302.45;;;7.92;89.93
25510;BME280;13413;52.336;21.200;2023-12-20T11:44:43;99299.08;;;7.93;89.99
25510;BME280;13413;52.336;21.200;2023-12-20T11:47:28;99298.97;;;7.93;89.82
25510;BME280;13413;52.336;21.200;2023-12-20T11:50:14;99296.73;;;7.89;89.87
25510;BME280;13413;52.336;21.200;2023-12-20T11:53:00;99287.79;;;7.89;89.78
25510;BME280;13413;52.336;21.200;2023-12-20T11:55:48;99290.02;;;7.93;90.05
25510;BME280;13413;52.336;21.200;2023-12-20T11:58:34;99285.27;;;7.96;89.95
25510;BME280;13413;52.336;21.200;2023-12-20T12:01:20;99279.78;;;7.96;89.90
25510;BME280;13413;52.336;21.200;2023-12-20T12:04:07;99282.41;;;7.99;89.88
25510;BME280;13413;52.336;21.200;2023-12-20T12:06:53;99277.91;;;7.98;89.92
25510;BME280;13413;52.336;21.200;2023-12-20T12:09:38;99273.38;;;7.97;89.85
25510;BME280;13413;52.336;21.200;2023-12-20T12:12:23;99268.95;;;7.94;90.01
25510;BME280;13413;52.336;21.200;2023-12-20T12:15:09;99264.67;;;7.93;90.04
25510;BME280;13413;52.336;21.200;2023-12-20T12:17:55;99266.52;;;7.90;90.05
25510;BME280;13413;52.336;21.200;2023-12-20T12:20:41;99267.23;;;7.90;89.92
25510;BME280;13413;52.336;21.200;2023-12-20T12:23:26;99265.77;;;7.89;89.88
25510;BME280;13413;52.336;21.200;2023-12-20T12:26:11;99258.28;;;7.87;89.75
25510;BME280;13413;52.336;21.200;2023-12-20T12:28:58;99248.56;;;7.86;89.85
25510;BME280;13413;52.336;21.200;2023-12-20T12:31:43;99247.19;;;7.89;89.71
25510;BME280;13413;52.336;21.200;2023-12-20T12:34:29;99245.69;;;7.84;89.72
25510;BME280;13413;52.336;21.200;2023-12-20T12:40:14;99241.62;;;7.77;89.59
25510;BME280;13413;52.336;21.200;2023-12-20T12:42:59;99244.34;;;7.77;89.55
25510;BME280;13413;52.336;21.200;2023-12-20T12:45:45;99240.92;;;7.73;89.57
25510;BME280;13413;52.336;21.200;2023-12-20T12:48:30;99252.70;;;7.72;89.63
25510;BME280;13413;52.336;21.200;2023-12-20T12:51:15;99246.05;;;7.71;89.61
25510;BME280;13413;52.336;21.200;2023-12-20T12:54:01;99242.80;;;7.73;89.60
25510;BME280;13413;52.336;21.200;2023-12-20T12:56:47;99239.85;;;7.71;89.25
25510;BME280;13413;52.336;21.200;2023-12-20T12:59:32;99236.81;;;7.72;89.12
25510;BME280;13413;52.336;21.200;2023-12-20T13:02:17;99246.17;;;7.68;89.10
25510;BME280;13413;52.336;21.200;2023-12-20T13:05:03;99248.09;;;7.71;89.15
25510;BME280;13413;52.336;21.200;2023-12-20T13:07:49;99242.83;;;7.70;88.93
25510;BME280;13413;52.336;21.200;2023-12-20T13:15:58;99235.58;;;7.67;88.82
25510;BME280;13413;52.336;21.200;2023-12-20T13:18:44;99239.36;;;7.62;88.64
25510;BME280;13413;52.336;21.200;2023-12-20T13:21:29;99241.18;;;7.62;88.69
25510;BME280;13413;52.336;21.200;2023-12-20T13:24:15;99247.66;;;7.60;88.44
25510;BME280;13413;52.336;21.200;2023-12-20T13:27:00;99253.55;;;7.57;88.28
25510;BME280;13413;52.336;21.200;2023-12-20T13:29:46;99250.52;;;7.55;88.33
25510;BME280;13413;52.336;21.200;2023-12-20T13:32:31;99248.72;;;7.49;88.11
25510;BME280;13413;52.336;21.200;2023-12-20T13:35:17;99253.38;;;7.50;87.96
25510;BME280;13413;52.336;21.200;2023-12-20T13:38:02;99249.45;;;7.49;87.96
25510;BME280;13413;52.336;21.200;2023-12-20T13:40:48;99252.39;;;7.46;87.88
25510;BME280;13413;52.336;21.200;2023-12-20T13:43:34;99244.70;;;7.49;88.04
25510;BME280;13413;52.336;21.200;2023-12-20T13:46:19;99239.92;;;7.46;87.92
25510;BME280;13413;52.336;21.200;2023-12-20T13:49:05;99240.77;;;7.43;87.53
25510;BME280;13413;52.336;21.200;2023-12-20T13:51:50;99234.55;;;7.38;87.27
25510;BME280;13413;52.336;21.200;2023-12-20T13:54:36;99237.55;;;7.39;87.45
25510;BME280;13413;52.336;21.200;2023-12-20T13:57:21;99243.05;;;7.39;87.70
25510;BME280;13413;52.336;21.200;2023-12-20T14:00:07;99235.84;;;7.39;87.71
25510;BME280;13413;52.336;21.200;2023-12-20T14:02:53;99236.59;;;7.37;87.69
25510;BME280;13413;52.336;21.200;2023-12-20T14:05:38;99233.27;;;7.35;87.76
25510;BME280;13413;52.336;21.200;2023-12-20T14:08:24;99240.47;;;7.32;87.63
25510;BME280;13413;52.336;21.200;2023-12-20T14:11:09;99236.80;;;7.32;87.45
25510;BME280;13413;52.336;21.200;2023-12-20T14:13:54;99233.71;;;7.30;87.32
25510;BME280;13413;52.336;21.200;2023-12-20T14:16:40;99237.95;;;7.30;87.32
25510;BME280;13413;52.336;21.200;2023-12-20T14:19:26;99234.80;;;7.28;87.25
25510;BME280;13413;52.336;21.200;2023-12-20T14:22:11;99230.91;;;7.28;87.09
25510;BME280;13413;52.336;21.200;2023-12-20T14:24:57;99229.11;;;7.26;87.06
25510;BME280;13413;52.336;21.200;2023-12-20T14:27:43;99228.48;;;7.25;87.07
25510;BME280;13413;52.336;21.200;2023-12-20T14:30:28;99229.80;;;7.26;87.21
25510;BME280;13413;52.336;21.200;2023-12-20T14:33:14;99233.10;;;7.25;87.09
25510;BME280;13413;52.336;21.200;2023-12-20T14:36:00;99243.88;;;7.25;87.01
25510;BME280;13413;52.336;21.200;2023-12-20T14:38:45;99250.15;;;7.24;86.99
25510;BME280;13413;52.336;21.200;2023-12-20T14:41:31;99246.20;;;7.21;86.93
25510;BME280;13413;52.336;21.200;2023-12-20T14:44:17;99246.70;;;7.23;86.79
25510;BME280;13413;52.336;21.200;2023-12-20T14:47:02;99242.05;;;7.21;86.27
25510;BME280;13413;52.336;21.200;2023-12-20T14:49:48;99249.99;;;7.20;85.73
25510;BME280;13413;52.336;21.200;2023-12-20T14:52:33;99241.39;;;7.20;85.76
25510;BME280;13413;52.336;21.200;2023-12-20T14:55:19;99243.41;;;7.20;85.54
25510;BME280;13413;52.336;21.200;2023-12-20T14:58:05;99241.90;;;7.19;85.58
25510;BME280;13413;52.336;21.200;2023-12-20T15:00:51;99246.08;;;7.19;85.37
25510;BME280;13413;52.336;21.200;2023-12-20T15:03:36;99245.12;;;7.20;85.26
25510;BME280;13413;52.336;21.200;2023-12-20T15:06:21;99243.90;;;7.20;85.23
25510;BME280;13413;52.336;21.200;2023-12-20T15:09:07;99248.23;;;7.16;84.51
25510;BME280;13413;52.336;21.200;2023-12-20T15:11:52;99241.02;;;7.15;84.42
25510;BME280;13413;52.336;21.200;2023-12-20T15:14:37;99241.08;;;7.13;84.02
25510;BME280;13413;52.336;21.200;2023-12-20T15:17:23;99244.27;;;7.09;83.81
25510;BME280;13413;52.336;21.200;2023-12-20T15:20:09;99243.79;;;7.06;83.46
25510;BME280;13413;52.336;21.200;2023-12-20T15:22:55;99238.09;;;7.11;83.84
25510;BME280;13413;52.336;21.200;2023-12-20T15:25:40;99233.37;;;7.10;83.46
25510;BME280;13413;52.336;21.200;2023-12-20T15:33:02;99231.06;;;7.07;83.42
25510;BME280;13413;52.336;21.200;2023-12-20T15:35:47;99228.06;;;7.02;83.04